URKF weather

Afipsky Heliport
Afipski, Krasnodar Krai, Russia

Public forecast

Using degrees Celsius for public forecast. Weather courtesy of forecast.io.

METAR (pilot weather report)

Closest report is Krasnodar Pashkovsky International Airport, 17.5 nm (32.3 km) NE. Retrieved 2019/08/23 18:30 UTC (8 minutes ago):

URKK 231830Z 33002MPS 290V350 CAVOK 25/16 Q1011 R23L/CLRD70 NOSIG RMK QFE755

TAF (pilot weather forecast)

Closest forecast is Krasnodar Pashkovsky International Airport, 17.5 nm (32.3 km) NE. Retrieved 2019/08/23 18:24 UTC (14 minutes ago):

TAF URKK 231655Z 2318/2418 07003G08MPS 9999 SCT030CB PROB40 TEMPO 2318/2406 VRB06G12MPS 3100 -TSRA SCT011 BKN020CB